Terminal Aerodrome Forecast
Issued by NWS Wilmington, OH

Current Version | Previous Version | Text Only | Print | Product List | Glossary Off
Versions: 1 2 3 4 5 6 7 8 9 10 11 12 13

000
FTUS41 KILN 231737
TAFCMH
TAF
KCMH 231737Z 2318/2418 06012G20KT P6SM BKN200
     FM240000 04007KT P6SM BKN250
     FM241500 07010KT P6SM SCT250=

USA.gov is the U.S. government's official web portal to all federal, state and local government web resources and services.